createdAt,value
2022-10-08T00:01:06.438Z,96090.66
2022-10-08T00:03:35.162Z,96086.00
2022-10-08T00:06:12.379Z,96083.31
2022-10-08T00:08:41.458Z,96087.91
2022-10-08T00:11:14.019Z,96084.13
2022-10-08T00:13:41.824Z,96084.19
2022-10-08T00:16:12.290Z,96084.34
2022-10-08T00:18:40.985Z,96075.97
2022-10-08T00:21:16.427Z,96084.50
2022-10-08T00:23:44.508Z,96085.66
2022-10-08T00:26:11.272Z,96085.56
2022-10-08T00:28:41.509Z,96081.16
2022-10-08T00:31:11.112Z,96073.53
2022-10-08T00:33:38.442Z,96076.75
2022-10-08T00:36:08.860Z,96084.34
2022-10-08T00:38:36.323Z,96078.47
2022-10-08T00:41:05.599Z,96072.41
2022-10-08T00:43:40.295Z,96078.34
2022-10-08T00:46:25.248Z,96077.84
2022-10-08T00:49:12.746Z,96079.38
2022-10-08T00:51:50.448Z,96076.63
2022-10-08T00:54:19.662Z,96069.19
2022-10-08T00:56:51.122Z,96070.72
2022-10-08T00:59:18.231Z,96065.66
2022-10-08T01:01:44.898Z,96068.59
2022-10-08T01:04:13.641Z,96069.06
2022-10-08T01:06:46.651Z,96066.84
2022-10-08T01:09:38.567Z,96063.38
2022-10-08T01:12:31.264Z,96063.31
2022-10-08T01:15:01.654Z,96064.88
2022-10-08T01:17:49.769Z,96053.31
2022-10-08T01:20:34.010Z,96052.72
2022-10-08T01:23:37.821Z,96055.06
2022-10-08T01:26:17.753Z,96055.81
2022-10-08T01:28:51.467Z,96055.06
2022-10-08T01:31:24.423Z,96054.41
2022-10-08T01:33:54.301Z,96045.72
2022-10-08T01:36:23.391Z,96050.38
2022-10-08T01:39:00.589Z,96053.38
2022-10-08T01:41:30.128Z,96048.75
2022-10-08T01:44:04.542Z,96046.91
2022-10-08T01:46:31.858Z,96046.13
2022-10-08T01:49:04.523Z,96046.53
2022-10-08T01:51:47.289Z,96047.97
2022-10-08T01:54:16.622Z,96048.88
2022-10-08T01:56:46.059Z,96051.66
2022-10-08T01:59:19.964Z,96041.47
2022-10-08T02:01:58.994Z,96047.56
2022-10-08T02:04:34.578Z,96048.84
2022-10-08T02:07:20.616Z,96035.63
2022-10-08T02:09:53.681Z,96039.50
2022-10-08T02:12:23.076Z,96039.78
2022-10-08T02:14:54.996Z,96043.44
2022-10-08T02:17:41.614Z,96040.88
2022-10-08T02:20:29.360Z,96040.84
2022-10-08T02:23:06.506Z,96043.25
2022-10-08T02:25:37.509Z,96039.09
2022-10-08T02:28:16.567Z,96041.25
2022-10-08T02:30:53.956Z,96031.00
2022-10-08T02:34:17.825Z,96029.97
2022-10-08T02:36:50.179Z,96028.66
2022-10-08T02:39:19.628Z,96029.19
2022-10-08T02:41:52.814Z,96031.41
2022-10-08T02:44:26.315Z,96026.88
2022-10-08T02:46:56.821Z,96029.38
2022-10-08T02:49:28.486Z,96043.25
2022-10-08T02:51:59.253Z,96041.38
2022-10-08T02:54:26.131Z,96034.53
2022-10-08T02:56:59.768Z,96034.44
2022-10-08T02:59:26.560Z,96036.22
2022-10-08T03:02:03.833Z,96038.63
2022-10-08T03:04:36.206Z,96035.06
2022-10-08T03:07:03.993Z,96042.84
2022-10-08T03:09:38.431Z,96044.94
2022-10-08T03:12:06.366Z,96041.47
2022-10-08T03:14:40.771Z,96040.34
2022-10-08T03:17:09.958Z,96040.00
2022-10-08T03:19:36.525Z,96039.59
2022-10-08T03:22:03.316Z,96046.03
2022-10-08T03:24:29.944Z,96048.22
2022-10-08T03:26:56.505Z,96043.38
2022-10-08T03:29:23.036Z,96045.78
2022-10-08T03:31:50.214Z,96054.16
2022-10-08T03:34:16.977Z,96046.34
2022-10-08T03:36:43.533Z,96051.47
2022-10-08T03:39:11.489Z,96051.06
2022-10-08T03:41:38.317Z,96043.94
2022-10-08T03:44:10.672Z,96042.59
2022-10-08T03:46:37.324Z,96047.72
2022-10-08T03:49:04.078Z,96046.38
2022-10-08T03:51:30.666Z,96043.09
2022-10-08T03:53:57.436Z,96055.56
2022-10-08T03:56:24.927Z,96051.31
2022-10-08T03:58:56.855Z,96055.56
2022-10-08T04:01:24.321Z,96060.31
2022-10-08T04:03:50.911Z,96056.72
2022-10-08T04:06:17.898Z,96062.78
2022-10-08T04:08:44.651Z,96062.25
2022-10-08T04:11:13.267Z,96060.50
2022-10-08T04:13:40.324Z,96059.09
2022-10-08T04:16:10.853Z,96063.06
2022-10-08T04:18:38.110Z,96059.66
2022-10-08T04:21:07.245Z,96058.75
2022-10-08T04:23:35.749Z,96065.56
2022-10-08T04:26:03.450Z,96059.97
2022-10-08T04:28:32.177Z,96057.69
2022-10-08T04:31:06.060Z,96057.28
2022-10-08T04:33:35.145Z,96057.09
2022-10-08T04:36:06.903Z,96058.69
2022-10-08T04:38:33.395Z,96058.81
2022-10-08T04:41:08.939Z,96067.34
2022-10-08T04:43:37.246Z,96061.59
2022-10-08T04:46:04.501Z,96056.56
2022-10-08T04:48:31.654Z,96061.22
2022-10-08T04:51:08.089Z,96068.38
2022-10-08T04:53:36.838Z,96069.28
2022-10-08T04:56:12.670Z,96066.63
2022-10-08T04:58:40.528Z,96068.25
2022-10-08T05:01:08.575Z,96064.41
2022-10-08T05:03:39.219Z,96062.38
2022-10-08T05:06:07.013Z,96062.81
2022-10-08T05:08:34.698Z,96063.91
2022-10-08T05:11:01.270Z,96070.25
2022-10-08T05:13:28.365Z,96074.22
2022-10-08T05:15:54.951Z,96076.03
2022-10-08T05:18:22.427Z,96083.41
2022-10-08T05:20:48.943Z,96070.38
2022-10-08T05:23:15.437Z,96084.34
2022-10-08T05:25:42.025Z,96089.63
2022-10-08T05:28:08.616Z,96084.75
2022-10-08T05:30:35.753Z,96094.81
2022-10-08T05:33:02.344Z,96095.44
2022-10-08T05:35:28.929Z,96094.06
2022-10-08T05:37:55.600Z,96100.69
2022-10-08T05:40:22.132Z,96097.03
2022-10-08T05:42:49.013Z,96109.47
2022-10-08T05:45:15.954Z,96100.94
2022-10-08T05:47:42.459Z,96107.63
2022-10-08T05:50:09.305Z,96106.03
2022-10-08T05:52:35.790Z,96107.50
2022-10-08T05:55:02.622Z,96110.19
2022-10-08T05:57:29.157Z,96114.88
2022-10-08T05:59:55.793Z,96118.63
2022-10-08T06:02:22.429Z,96120.75
2022-10-08T06:04:49.681Z,96124.41
2022-10-08T06:07:16.427Z,96118.56
2022-10-08T06:09:44.910Z,96122.31
2022-10-08T06:12:13.693Z,96128.75
2022-10-08T06:14:40.750Z,96119.91
2022-10-08T06:17:07.348Z,96127.97
2022-10-08T06:19:37.733Z,96128.56
2022-10-08T06:22:04.985Z,96134.59
2022-10-08T06:24:31.769Z,96136.22
2022-10-08T06:26:58.516Z,96133.31
2022-10-08T06:29:25.103Z,96133.81
2022-10-08T06:31:51.990Z,96137.50
2022-10-08T06:34:18.609Z,96143.50
2022-10-08T06:36:45.215Z,96148.41
2022-10-08T06:39:14.431Z,96150.66
2022-10-08T06:41:41.298Z,96155.28
2022-10-08T06:44:11.117Z,96159.47
2022-10-08T06:46:37.691Z,96162.38
2022-10-08T06:49:05.966Z,96166.69
2022-10-08T06:51:32.982Z,96166.13
2022-10-08T06:54:06.626Z,96166.69
2022-10-08T06:56:36.047Z,96175.63
2022-10-08T06:59:03.974Z,96176.56
2022-10-08T07:01:33.723Z,96178.03
2022-10-08T07:04:01.870Z,96183.13
2022-10-08T07:06:28.897Z,96181.16
2022-10-08T07:08:57.658Z,96180.09
2022-10-08T07:11:25.097Z,96174.78
2022-10-08T07:13:52.154Z,96181.72
2022-10-08T07:16:21.549Z,96177.19
2022-10-08T07:18:50.145Z,96183.00
2022-10-08T07:21:18.986Z,96184.63
2022-10-08T07:23:45.721Z,96188.47
2022-10-08T07:26:15.731Z,96190.09
2022-10-08T07:28:47.937Z,96199.25
2022-10-08T07:31:17.863Z,96197.13
2022-10-08T07:33:44.496Z,96202.56
2022-10-08T07:36:13.642Z,96201.50
2022-10-08T07:38:40.881Z,96204.00
2022-10-08T07:41:08.577Z,96209.16
2022-10-08T07:43:36.119Z,96205.53
2022-10-08T07:46:05.533Z,96208.66
2022-10-08T07:48:34.250Z,96207.53
2022-10-08T07:51:18.384Z,96214.84
2022-10-08T07:53:45.539Z,96211.56
2022-10-08T07:56:14.091Z,96216.38
2022-10-08T07:58:41.242Z,96217.22
2022-10-08T08:01:11.536Z,96214.06
2022-10-08T08:03:38.105Z,96214.81
2022-10-08T08:06:16.373Z,96223.81
2022-10-08T08:08:45.157Z,96222.06
2022-10-08T08:11:15.753Z,96234.94
2022-10-08T08:13:42.558Z,96237.91
2022-10-08T08:16:20.505Z,96225.13
2022-10-08T08:18:50.525Z,96234.53
2022-10-08T08:21:22.931Z,96240.31
2022-10-08T08:23:52.169Z,96242.66
2022-10-08T08:26:39.023Z,96241.31
2022-10-08T08:29:11.699Z,96242.31
2022-10-08T08:31:40.823Z,96242.94
2022-10-08T08:34:10.179Z,96240.63
2022-10-08T08:36:39.321Z,96239.22
2022-10-08T08:39:08.327Z,96242.41
2022-10-08T08:41:46.443Z,96248.53
2022-10-08T08:44:17.448Z,96253.63
2022-10-08T08:47:24.382Z,96250.53
2022-10-08T08:50:30.033Z,96255.06
2022-10-08T08:52:57.215Z,96266.31
2022-10-08T08:55:34.245Z,96258.88
2022-10-08T08:58:20.995Z,96262.75
2022-10-08T09:00:56.387Z,96268.94
2022-10-08T09:03:29.025Z,96266.34
2022-10-08T09:06:00.093Z,96265.00
2022-10-08T09:08:37.450Z,96269.28
2022-10-08T09:11:05.514Z,96268.78
2022-10-08T09:13:37.693Z,96268.28
2022-10-08T09:16:04.330Z,96272.84
2022-10-08T09:18:32.266Z,96266.09
2022-10-08T09:20:58.841Z,96265.44
2022-10-08T09:23:26.980Z,96266.88
2022-10-08T09:26:15.346Z,96266.91
2022-10-08T09:28:46.689Z,96264.81
2022-10-08T09:31:51.931Z,96263.38
2022-10-08T09:34:19.981Z,96259.31
2022-10-08T09:37:01.915Z,96260.47
2022-10-08T09:39:31.801Z,96276.47
2022-10-08T09:42:07.151Z,96267.00
2022-10-08T09:44:51.862Z,96265.31
2022-10-08T09:47:20.722Z,96265.25
2022-10-08T09:50:06.192Z,96272.13
2022-10-08T09:52:34.933Z,96271.22
2022-10-08T09:55:24.264Z,96274.75
2022-10-08T09:57:55.370Z,96266.00
2022-10-08T10:00:31.866Z,96274.59
2022-10-08T10:03:00.221Z,96269.00
2022-10-08T10:05:29.975Z,96267.38
2022-10-08T10:07:57.026Z,96264.78
2022-10-08T10:10:29.004Z,96268.69
2022-10-08T10:13:32.715Z,96268.22
2022-10-08T10:16:04.221Z,96268.22
2022-10-08T10:18:39.717Z,96270.50
2022-10-08T10:21:11.579Z,96277.19
2022-10-08T10:23:42.610Z,96268.53
2022-10-08T10:26:15.294Z,96273.72
2022-10-08T10:29:06.872Z,96265.03
2022-10-08T10:31:36.686Z,96268.00
2022-10-08T10:34:18.842Z,96264.53
2022-10-08T10:36:52.741Z,96259.66
2022-10-08T10:39:19.211Z,96264.09
2022-10-08T10:42:12.111Z,96264.97
2022-10-08T10:45:03.390Z,96268.66
2022-10-08T10:47:32.361Z,96267.06
2022-10-08T10:50:01.131Z,96267.28
2022-10-08T10:52:55.142Z,96275.25
2022-10-08T10:55:31.395Z,96258.47
2022-10-08T10:58:18.265Z,96263.84
2022-10-08T11:00:56.950Z,96260.09
2022-10-08T11:03:42.107Z,96270.16
2022-10-08T11:06:33.567Z,96270.25
2022-10-08T11:09:09.058Z,96267.22
2022-10-08T11:11:48.362Z,96257.78
2022-10-08T11:14:42.547Z,96258.25
2022-10-08T11:17:33.763Z,96258.63
2022-10-08T11:20:42.597Z,96257.38
2022-10-08T11:23:40.686Z,96263.50
2022-10-08T11:26:22.899Z,96260.41
2022-10-08T11:29:01.726Z,96265.53
2022-10-08T11:31:45.563Z,96260.47
2022-10-08T11:34:24.257Z,96257.94
2022-10-08T11:37:21.227Z,96257.69
2022-10-08T11:40:06.543Z,96267.13
2022-10-08T11:42:49.049Z,96262.78
2022-10-08T11:45:24.536Z,96264.88
2022-10-08T11:47:54.298Z,96262.41
2022-10-08T11:50:25.610Z,96250.13
2022-10-08T11:52:53.473Z,96258.84
2022-10-08T11:55:30.143Z,96252.66
2022-10-08T11:58:09.102Z,96254.28
2022-10-08T12:00:46.907Z,96269.38
2022-10-08T12:04:07.571Z,96257.66
2022-10-08T12:06:35.546Z,96264.53
2022-10-08T12:09:06.563Z,96267.50
2022-10-08T12:11:33.042Z,96263.16
2022-10-08T12:14:12.047Z,96258.72
2022-10-08T12:16:47.817Z,96256.13
2022-10-08T12:19:35.857Z,96257.72
2022-10-08T12:22:32.267Z,96257.47
2022-10-08T12:24:59.178Z,96249.84
2022-10-08T12:27:27.406Z,96248.91
2022-10-08T12:30:12.315Z,96251.97
2022-10-08T12:32:41.892Z,96247.50
2022-10-08T12:35:28.804Z,96242.38
2022-10-08T12:38:07.441Z,96242.94
2022-10-08T12:40:55.856Z,96251.09
2022-10-08T12:43:59.646Z,96247.41
2022-10-08T12:46:50.273Z,96243.81
2022-10-08T12:49:30.543Z,96235.84
2022-10-08T12:52:04.120Z,96246.41
2022-10-08T12:54:31.639Z,96253.81
2022-10-08T12:56:59.828Z,96257.28
2022-10-08T12:59:31.572Z,96248.56
2022-10-08T13:01:58.772Z,96254.69
2022-10-08T13:04:30.438Z,96254.28
2022-10-08T13:06:57.253Z,96259.13
2022-10-08T13:09:36.003Z,96258.19
2022-10-08T13:12:07.927Z,96259.13
2022-10-08T13:14:40.420Z,96255.88
2022-10-08T13:17:25.302Z,96263.59
2022-10-08T13:20:04.885Z,96261.31
2022-10-08T13:22:31.427Z,96262.66
2022-10-08T13:24:57.951Z,96264.50
2022-10-08T13:27:33.633Z,96264.34
2022-10-08T13:30:28.033Z,96268.31
2022-10-08T13:33:06.163Z,96268.59
2022-10-08T13:35:33.373Z,96268.00
2022-10-08T13:38:00.940Z,96271.91
2022-10-08T13:40:27.642Z,96271.81
2022-10-08T13:42:58.804Z,96269.91
2022-10-08T13:45:36.796Z,96272.06
2022-10-08T13:48:03.859Z,96271.88
2022-10-08T13:50:30.434Z,96272.44
2022-10-08T13:53:00.550Z,96274.59
2022-10-08T13:55:33.767Z,96274.03
2022-10-08T13:58:02.637Z,96287.16
2022-10-08T14:00:31.309Z,96276.75
2022-10-08T14:02:58.005Z,96283.09
2022-10-08T14:05:27.071Z,96289.25
2022-10-08T14:07:58.461Z,96294.19
2022-10-08T14:10:25.392Z,96293.41
2022-10-08T14:12:51.953Z,96281.81
2022-10-08T14:15:19.052Z,96290.09
2022-10-08T14:17:45.922Z,96282.13
2022-10-08T14:20:12.685Z,96281.69
2022-10-08T14:22:39.235Z,96283.63
2022-10-08T14:25:21.218Z,96291.59
2022-10-08T14:27:48.007Z,96288.56
2022-10-08T14:30:15.596Z,96288.41
2022-10-08T14:32:42.192Z,96296.44
2022-10-08T14:35:09.801Z,96291.59
2022-10-08T14:37:36.673Z,96295.84
2022-10-08T14:40:06.014Z,96294.78
2022-10-08T14:42:32.719Z,96291.94
2022-10-08T14:44:59.278Z,96297.84
2022-10-08T14:47:25.874Z,96289.47
2022-10-08T14:49:52.418Z,96287.94
2022-10-08T14:52:20.491Z,96293.94
2022-10-08T14:54:47.014Z,96301.53
2022-10-08T14:57:13.771Z,96298.31
2022-10-08T14:59:41.166Z,96297.34
2022-10-08T15:02:10.671Z,96295.97
2022-10-08T15:04:37.467Z,96297.06
2022-10-08T15:07:04.478Z,96296.88
2022-10-08T15:09:31.559Z,96294.06
2022-10-08T15:11:58.344Z,96301.50
2022-10-08T15:14:25.196Z,96304.38
2022-10-08T15:16:51.920Z,96297.38
2022-10-08T15:19:22.716Z,96302.88
2022-10-08T15:21:50.483Z,96295.44
2022-10-08T15:24:17.038Z,96293.72
2022-10-08T15:26:43.574Z,96289.56
2022-10-08T15:29:10.175Z,96303.09
2022-10-08T15:31:36.719Z,96294.31
2022-10-08T15:34:03.300Z,96301.50
2022-10-08T15:36:32.328Z,96297.88
2022-10-08T15:39:01.355Z,96296.63
2022-10-08T15:41:30.310Z,96294.00
2022-10-08T15:44:07.213Z,96298.38
2022-10-08T15:46:33.761Z,96302.44
2022-10-08T15:49:02.043Z,96306.25
2022-10-08T15:51:29.802Z,96304.94
2022-10-08T15:53:58.170Z,96313.47
2022-10-08T15:56:24.974Z,96315.56
2022-10-08T15:58:51.948Z,96312.03
2022-10-08T16:01:22.459Z,96311.94
2022-10-08T16:03:52.183Z,96329.00
2022-10-08T16:06:27.876Z,96326.59
2022-10-08T16:08:57.049Z,96329.03
2022-10-08T16:11:29.319Z,96332.41
2022-10-08T16:13:58.510Z,96334.97
2022-10-08T16:16:25.158Z,96335.75
2022-10-08T16:18:57.101Z,96341.50
2022-10-08T16:21:24.517Z,96337.09
2022-10-08T16:23:51.073Z,96339.91
2022-10-08T16:26:21.105Z,96345.22
2022-10-08T16:28:50.268Z,96348.03
2022-10-08T16:31:21.682Z,96347.41
2022-10-08T16:33:48.350Z,96346.72
2022-10-08T16:36:15.242Z,96346.09
2022-10-08T16:38:43.064Z,96345.31
2022-10-08T16:41:19.082Z,96351.66
2022-10-08T16:43:49.053Z,96352.66
2022-10-08T16:46:21.910Z,96348.44
2022-10-08T16:49:25.340Z,96350.06
2022-10-08T16:51:55.260Z,96358.28
2022-10-08T16:54:22.120Z,96357.53
2022-10-08T16:56:48.924Z,96364.94
2022-10-08T16:59:22.687Z,96383.59
2022-10-08T17:01:51.481Z,96385.13
2022-10-08T17:04:23.473Z,96386.38
2022-10-08T17:06:50.062Z,96391.00
2022-10-08T17:09:16.926Z,96386.38
2022-10-08T17:11:45.467Z,96388.59
2022-10-08T17:14:12.757Z,96394.31
2022-10-08T17:16:40.261Z,96395.31
2022-10-08T17:19:06.876Z,96398.88
2022-10-08T17:21:34.825Z,96399.69
2022-10-08T17:24:02.733Z,96399.78
2022-10-08T17:26:30.810Z,96399.56
2022-10-08T17:28:57.965Z,96402.88
2022-10-08T17:31:27.178Z,96418.63
2022-10-08T17:33:53.993Z,96413.34
2022-10-08T17:36:23.001Z,96413.19
2022-10-08T17:38:52.771Z,96413.59
2022-10-08T17:41:28.029Z,96419.56
2022-10-08T17:43:55.917Z,96423.00
2022-10-08T17:46:27.771Z,96428.25
2022-10-08T17:48:55.053Z,96431.78
2022-10-08T17:51:23.738Z,96437.97
2022-10-08T17:53:55.717Z,96438.59
2022-10-08T17:56:23.287Z,96439.50
2022-10-08T17:58:50.596Z,96449.50
2022-10-08T18:01:21.244Z,96447.84
2022-10-08T18:03:59.408Z,96449.94
2022-10-08T18:06:27.773Z,96454.94
2022-10-08T18:08:55.827Z,96450.78
2022-10-08T18:11:22.573Z,96455.88
2022-10-08T18:13:49.363Z,96456.75
2022-10-08T18:16:17.506Z,96462.56
2022-10-08T18:18:45.261Z,96471.97
2022-10-08T18:21:13.428Z,96467.84
2022-10-08T18:23:42.762Z,96466.75
2022-10-08T18:26:24.412Z,96472.50
2022-10-08T18:28:54.176Z,96484.47
2022-10-08T18:31:22.675Z,96483.47
2022-10-08T18:33:54.430Z,96483.47
2022-10-08T18:36:23.916Z,96491.59
2022-10-08T18:39:02.287Z,96490.09
2022-10-08T18:41:38.648Z,96489.44
2022-10-08T18:44:06.360Z,96491.88
2022-10-08T18:46:35.031Z,96493.25
2022-10-08T18:49:02.359Z,96501.75
2022-10-08T18:51:30.112Z,96504.84
2022-10-08T18:53:58.293Z,96500.78
2022-10-08T18:56:30.446Z,96505.53
2022-10-08T18:58:58.872Z,96493.97
2022-10-08T19:01:27.663Z,96494.47
2022-10-08T19:03:56.975Z,96507.13
2022-10-08T19:06:27.516Z,96509.34
2022-10-08T19:08:58.615Z,96518.09
2022-10-08T19:11:33.594Z,96515.19
2022-10-08T19:14:01.053Z,96513.63
2022-10-08T19:16:28.134Z,96515.47
2022-10-08T19:18:57.385Z,96527.00
2022-10-08T19:21:25.071Z,96522.94
2022-10-08T19:23:52.740Z,96532.59
2022-10-08T19:26:19.449Z,96522.13
2022-10-08T19:28:52.509Z,96527.97
2022-10-08T19:31:23.733Z,96526.78
2022-10-08T19:34:04.609Z,96532.09
2022-10-08T19:36:37.059Z,96536.78
2022-10-08T19:39:11.141Z,96535.75
2022-10-08T19:41:40.070Z,96545.22
2022-10-08T19:44:06.685Z,96544.25
2022-10-08T19:46:33.337Z,96545.97
2022-10-08T19:49:02.919Z,96553.63
2022-10-08T19:51:31.065Z,96553.94
2022-10-08T19:53:58.281Z,96557.03
2022-10-08T19:56:25.727Z,96547.97
2022-10-08T19:58:55.694Z,96559.09
2022-10-08T20:01:25.029Z,96559.75
2022-10-08T20:03:54.926Z,96565.03
2022-10-08T20:06:24.845Z,96558.28
2022-10-08T20:08:57.223Z,96571.38
2022-10-08T20:11:24.418Z,96569.84
2022-10-08T20:13:52.806Z,96568.00
2022-10-08T20:16:28.339Z,96578.69
2022-10-08T20:19:00.767Z,96571.63
2022-10-08T20:21:32.314Z,96564.97
2022-10-08T20:23:59.456Z,96581.00
2022-10-08T20:26:31.394Z,96577.50
2022-10-08T20:29:03.726Z,96580.56
2022-10-08T20:31:33.417Z,96565.88
2022-10-08T20:34:02.557Z,96573.19
2022-10-08T20:36:31.085Z,96573.97
2022-10-08T20:38:58.207Z,96572.19
2022-10-08T20:41:30.353Z,96576.97
2022-10-08T20:44:02.766Z,96572.34
2022-10-08T20:46:30.058Z,96574.94
2022-10-08T20:48:56.963Z,96575.47
2022-10-08T20:51:28.101Z,96577.97
2022-10-08T20:53:59.045Z,96581.47
2022-10-08T20:56:27.443Z,96583.53
2022-10-08T20:58:54.802Z,96582.63
2022-10-08T21:01:26.690Z,96578.09
2022-10-08T21:03:54.583Z,96574.88
2022-10-08T21:06:27.555Z,96579.91
2022-10-08T21:08:55.484Z,96579.97
2022-10-08T21:11:25.904Z,96587.63
2022-10-08T21:13:52.909Z,96579.63
2022-10-08T21:16:22.702Z,96588.00
2022-10-08T21:18:50.789Z,96583.34
2022-10-08T21:21:18.238Z,96588.56
2022-10-08T21:23:45.048Z,96583.78
2022-10-08T21:26:17.883Z,96576.97
2022-10-08T21:28:46.687Z,96573.88
2022-10-08T21:31:14.562Z,96575.00
2022-10-08T21:33:43.533Z,96581.22
2022-10-08T21:36:15.469Z,96579.38
2022-10-08T21:38:42.055Z,96579.91
2022-10-08T21:41:12.291Z,96582.00
2022-10-08T21:43:43.977Z,96589.31
2022-10-08T21:46:13.426Z,96577.28
2022-10-08T21:48:40.529Z,96573.84
2022-10-08T21:51:08.546Z,96575.16
2022-10-08T21:53:37.561Z,96582.75
2022-10-08T21:56:07.265Z,96583.03
2022-10-08T21:58:39.010Z,96583.59
2022-10-08T22:01:18.445Z,96581.78
2022-10-08T22:03:45.133Z,96579.28
2022-10-08T22:06:11.665Z,96576.50
2022-10-08T22:08:38.171Z,96575.53
2022-10-08T22:11:05.941Z,96574.78
2022-10-08T22:13:33.167Z,96577.69
2022-10-08T22:16:03.018Z,96575.06
2022-10-08T22:18:31.708Z,96573.66
2022-10-08T22:21:03.031Z,96567.25
2022-10-08T22:23:29.697Z,96573.00
2022-10-08T22:26:01.505Z,96577.50
2022-10-08T22:28:28.546Z,96582.34
2022-10-08T22:30:55.467Z,96564.38
2022-10-08T22:33:22.014Z,96568.75
2022-10-08T22:35:48.654Z,96567.75
2022-10-08T22:38:15.308Z,96563.81
2022-10-08T22:40:41.826Z,96559.22
2022-10-08T22:43:08.358Z,96554.19
2022-10-08T22:45:39.511Z,96554.00
2022-10-08T22:48:06.137Z,96559.59
2022-10-08T22:50:38.116Z,96567.78
2022-10-08T22:53:05.041Z,96566.47
2022-10-08T22:55:31.643Z,96563.31
2022-10-08T22:57:58.180Z,96556.69
2022-10-08T23:00:24.769Z,96550.88
2022-10-08T23:02:51.662Z,96556.84
2022-10-08T23:05:18.319Z,96550.44
2022-10-08T23:07:44.874Z,96551.47
2022-10-08T23:10:11.393Z,96555.34
2022-10-08T23:12:37.991Z,96547.84
2022-10-08T23:15:04.930Z,96541.72
2022-10-08T23:17:31.474Z,96545.56
2022-10-08T23:19:58.122Z,96544.84
2022-10-08T23:22:25.062Z,96543.00
2022-10-08T23:24:51.615Z,96548.00
2022-10-08T23:27:18.196Z,96533.56
2022-10-08T23:29:44.832Z,96543.78
2022-10-08T23:32:11.470Z,96544.97
2022-10-08T23:34:38.037Z,96535.22
2022-10-08T23:37:04.750Z,96535.03
2022-10-08T23:39:31.351Z,96535.41
2022-10-08T23:41:57.893Z,96536.09
2022-10-08T23:44:24.490Z,96533.44
2022-10-08T23:46:51.246Z,96535.97
2022-10-08T23:49:17.785Z,96534.75
2022-10-08T23:51:44.364Z,96535.09
2022-10-08T23:54:10.946Z,96530.50
2022-10-08T23:56:37.484Z,96530.28
2022-10-08T23:59:04.015Z,96527.69
